sensor_id;sensor_type;location;lat;lon;timestamp;temperature;humidity
57709;SHT35;42558;52.388;13.390;2024-03-23T00:52:47;7.61;88.14
57709;SHT35;42558;52.388;13.390;2024-03-23T00:55:16;7.60;87.91
57709;SHT35;42558;52.388;13.390;2024-03-23T00:57:45;7.66;88.22
57709;SHT35;42558;52.388;13.390;2024-03-23T01:00:14;7.67;88.52
57709;SHT35;42558;52.388;13.390;2024-03-23T01:02:44;7.66;88.80
57709;SHT35;42558;52.388;13.390;2024-03-23T01:05:13;7.64;89.03
57709;SHT35;42558;52.388;13.390;2024-03-23T01:07:42;7.65;89.03
57709;SHT35;42558;52.388;13.390;2024-03-23T01:10:11;7.66;88.99
57709;SHT35;42558;52.388;13.390;2024-03-23T01:12:40;7.67;88.81
57709;SHT35;42558;52.388;13.390;2024-03-23T01:15:09;7.68;88.78
57709;SHT35;42558;52.388;13.390;2024-03-23T01:17:38;7.66;88.94
57709;SHT35;42558;52.388;13.390;2024-03-23T01:20:07;7.67;89.13
57709;SHT35;42558;52.388;13.390;2024-03-23T01:22:36;7.71;89.23
57709;SHT35;42558;52.388;13.390;2024-03-23T01:25:05;7.72;89.24
57709;SHT35;42558;52.388;13.390;2024-03-23T01:27:35;7.74;89.32
57709;SHT35;42558;52.388;13.390;2024-03-23T01:30:04;7.72;89.32
57709;SHT35;42558;52.388;13.390;2024-03-23T01:32:30;7.72;89.47
57709;SHT35;42558;52.388;13.390;2024-03-23T01:34:59;7.70;89.47
57709;SHT35;42558;52.388;13.390;2024-03-23T01:37:28;7.69;89.55
57709;SHT35;42558;52.388;13.390;2024-03-23T01:39:57;7.70;89.70
57709;SHT35;42558;52.388;13.390;2024-03-23T01:42:26;7.68;89.70
57709;SHT35;42558;52.388;13.390;2024-03-23T01:44:54;7.68;89.67
57709;SHT35;42558;52.388;13.390;2024-03-23T01:47:21;7.65;89.64
57709;SHT35;42558;52.388;13.390;2024-03-23T01:49:49;7.66;89.72
57709;SHT35;42558;52.388;13.390;2024-03-23T01:52:19;7.63;89.74
57709;SHT35;42558;52.388;13.390;2024-03-23T01:54:48;7.64;89.74
57709;SHT35;42558;52.388;13.390;2024-03-23T01:57:15;7.64;89.88
57709;SHT35;42558;52.388;13.390;2024-03-23T01:59:44;7.68;89.90
57709;SHT35;42558;52.388;13.390;2024-03-23T02:02:10;7.66;89.82
57709;SHT35;42558;52.388;13.390;2024-03-23T02:04:37;7.65;89.98
57709;SHT35;42558;52.388;13.390;2024-03-23T02:07:08;7.65;90.12
57709;SHT35;42558;52.388;13.390;2024-03-23T02:09:37;7.62;90.01
57709;SHT35;42558;52.388;13.390;2024-03-23T02:12:06;7.63;90.00
57709;SHT35;42558;52.388;13.390;2024-03-23T02:14:36;7.61;89.93
57709;SHT35;42558;52.388;13.390;2024-03-23T02:17:04;7.59;89.90
57709;SHT35;42558;52.388;13.390;2024-03-23T02:19:33;7.50;90.17
57709;SHT35;42558;52.388;13.390;2024-03-23T02:22:02;7.53;90.43
57709;SHT35;42558;52.388;13.390;2024-03-23T02:24:31;7.54;90.46
57709;SHT35;42558;52.388;13.390;2024-03-23T02:27:02;7.57;90.59
57709;SHT35;42558;52.388;13.390;2024-03-23T02:29:31;7.58;90.58
57709;SHT35;42558;52.388;13.390;2024-03-23T02:32:00;7.49;90.50
57709;SHT35;42558;52.388;13.390;2024-03-23T02:34:30;7.46;90.74
57709;SHT35;42558;52.388;13.390;2024-03-23T02:36:58;7.43;90.78
57709;SHT35;42558;52.388;13.390;2024-03-23T02:39:27;7.43;90.94
57709;SHT35;42558;52.388;13.390;2024-03-23T02:41:56;7.41;91.09
57709;SHT35;42558;52.388;13.390;2024-03-23T02:44:25;7.46;91.19
57709;SHT35;42558;52.388;13.390;2024-03-23T02:46:54;7.46;91.06
57709;SHT35;42558;52.388;13.390;2024-03-23T02:49:23;7.44;90.98
57709;SHT35;42558;52.388;13.390;2024-03-23T02:51:52;7.46;90.94
57709;SHT35;42558;52.388;13.390;2024-03-23T02:54:21;7.46;90.87
57709;SHT35;42558;52.388;13.390;2024-03-23T02:56:50;7.41;90.71
57709;SHT35;42558;52.388;13.390;2024-03-23T02:59:19;7.42;90.72
57709;SHT35;42558;52.388;13.390;2024-03-23T03:01:48;7.43;90.79
57709;SHT35;42558;52.388;13.390;2024-03-23T03:04:17;7.47;90.81
57709;SHT35;42558;52.388;13.390;2024-03-23T03:06:47;7.45;90.64
57709;SHT35;42558;52.388;13.390;2024-03-23T03:09:17;7.45;90.63
57709;SHT35;42558;52.388;13.390;2024-03-23T03:11:46;7.45;90.60
57709;SHT35;42558;52.388;13.390;2024-03-23T03:14:15;7.46;90.65
57709;SHT35;42558;52.388;13.390;2024-03-23T03:16:43;7.46;90.64
57709;SHT35;42558;52.388;13.390;2024-03-23T03:19:12;7.47;90.62
57709;SHT35;42558;52.388;13.390;2024-03-23T03:21:42;7.48;90.67
57709;SHT35;42558;52.388;13.390;2024-03-23T03:24:11;7.47;90.64
57709;SHT35;42558;52.388;13.390;2024-03-23T03:26:40;7.45;90.63
57709;SHT35;42558;52.388;13.390;2024-03-23T03:29:09;7.48;90.76
57709;SHT35;42558;52.388;13.390;2024-03-23T03:31:38;7.48;90.73
57709;SHT35;42558;52.388;13.390;2024-03-23T03:34:08;7.44;90.71
57709;SHT35;42558;52.388;13.390;2024-03-23T03:36:37;7.42;90.75
57709;SHT35;42558;52.388;13.390;2024-03-23T03:39:06;7.45;90.80
57709;SHT35;42558;52.388;13.390;2024-03-23T03:41:35;7.46;90.85
57709;SHT35;42558;52.388;13.390;2024-03-23T03:44:04;7.48;90.90
57709;SHT35;42558;52.388;13.390;2024-03-23T03:46:31;7.50;90.90
57709;SHT35;42558;52.388;13.390;2024-03-23T03:48:59;7.48;90.84
57709;SHT35;42558;52.388;13.390;2024-03-23T03:51:28;7.47;90.90
57709;SHT35;42558;52.388;13.390;2024-03-23T03:53:57;7.46;90.90
57709;SHT35;42558;52.388;13.390;2024-03-23T03:56:26;7.43;90.92
57709;SHT35;42558;52.388;13.390;2024-03-23T03:58:56;7.39;91.04
57709;SHT35;42558;52.388;13.390;2024-03-23T04:01:25;7.32;91.21
57709;SHT35;42558;52.388;13.390;2024-03-23T04:03:54;7.32;91.22
57709;SHT35;42558;52.388;13.390;2024-03-23T04:06:23;7.23;90.92
57709;SHT35;42558;52.388;13.390;2024-03-23T04:08:52;7.17;90.82
57709;SHT35;42558;52.388;13.390;2024-03-23T04:11:21;7.20;90.92
57709;SHT35;42558;52.388;13.390;2024-03-23T04:13:50;7.20;90.80
57709;SHT35;42558;52.388;13.390;2024-03-23T04:16:28;7.15;90.74
57709;SHT35;42558;52.388;13.390;2024-03-23T04:18:58;7.09;90.89
57709;SHT35;42558;52.388;13.390;2024-03-23T04:21:27;7.04;90.80
57709;SHT35;42558;52.388;13.390;2024-03-23T04:23:56;7.01;90.80
57709;SHT35;42558;52.388;13.390;2024-03-23T04:26:25;7.04;90.84
57709;SHT35;42558;52.388;13.390;2024-03-23T04:28:54;6.98;90.72
57709;SHT35;42558;52.388;13.390;2024-03-23T04:31:23;6.95;90.67
57709;SHT35;42558;52.388;13.390;2024-03-23T04:33:52;6.90;90.67
57709;SHT35;42558;52.388;13.390;2024-03-23T04:36:21;6.87;90.70
57709;SHT35;42558;52.388;13.390;2024-03-23T04:38:50;6.86;90.67
57709;SHT35;42558;52.388;13.390;2024-03-23T04:41:21;6.75;90.53
57709;SHT35;42558;52.388;13.390;2024-03-23T04:43:50;6.67;90.44
57709;SHT35;42558;52.388;13.390;2024-03-23T04:46:18;6.60;90.40
57709;SHT35;42558;52.388;13.390;2024-03-23T04:48:49;6.62;90.44
57709;SHT35;42558;52.388;13.390;2024-03-23T04:51:23;6.63;90.46
57709;SHT35;42558;52.388;13.390;2024-03-23T04:53:52;6.65;90.41
57709;SHT35;42558;52.388;13.390;2024-03-23T04:56:21;6.56;90.34
57709;SHT35;42558;52.388;13.390;2024-03-23T04:58:50;6.52;90.59
57709;SHT35;42558;52.388;13.390;2024-03-23T05:01:19;6.50;90.64
57709;SHT35;42558;52.388;13.390;2024-03-23T05:03:48;6.55;90.80
57709;SHT35;42558;52.388;13.390;2024-03-23T05:06:18;6.57;90.79
57709;SHT35;42558;52.388;13.390;2024-03-23T05:08:47;6.53;90.64
57709;SHT35;42558;52.388;13.390;2024-03-23T05:11:16;6.53;90.71
57709;SHT35;42558;52.388;13.390;2024-03-23T05:13:46;6.42;90.86
57709;SHT35;42558;52.388;13.390;2024-03-23T05:16:15;6.41;91.05
57709;SHT35;42558;52.388;13.390;2024-03-23T05:18:44;6.40;91.12
57709;SHT35;42558;52.388;13.390;2024-03-23T05:21:13;6.36;91.25
57709;SHT35;42558;52.388;13.390;2024-03-23T05:23:41;6.36;91.27
57709;SHT35;42558;52.388;13.390;2024-03-23T05:26:11;6.37;91.15
57709;SHT35;42558;52.388;13.390;2024-03-23T05:28:40;6.36;91.09
57709;SHT35;42558;52.388;13.390;2024-03-23T05:31:09;6.37;91.02
57709;SHT35;42558;52.388;13.390;2024-03-23T05:33:38;6.36;91.00
57709;SHT35;42558;52.388;13.390;2024-03-23T05:36:07;6.36;91.09
57709;SHT35;42558;52.388;13.390;2024-03-23T05:38:40;6.38;91.00
57709;SHT35;42558;52.388;13.390;2024-03-23T05:41:09;6.38;90.98
57709;SHT35;42558;52.388;13.390;2024-03-23T05:43:38;6.39;90.95
57709;SHT35;42558;52.388;13.390;2024-03-23T05:46:07;6.41;90.86
57709;SHT35;42558;52.388;13.390;2024-03-23T05:48:37;6.47;90.92
57709;SHT35;42558;52.388;13.390;2024-03-23T05:51:06;6.50;90.92
57709;SHT35;42558;52.388;13.390;2024-03-23T05:53:36;6.48;90.73
57709;SHT35;42558;52.388;13.390;2024-03-23T05:56:05;6.49;90.68
57709;SHT35;42558;52.388;13.390;2024-03-23T05:58:34;6.51;90.65
57709;SHT35;42558;52.388;13.390;2024-03-23T06:01:03;6.53;90.60
57709;SHT35;42558;52.388;13.390;2024-03-23T06:03:33;6.57;90.66
57709;SHT35;42558;52.388;13.390;2024-03-23T06:06:03;6.60;90.58
57709;SHT35;42558;52.388;13.390;2024-03-23T06:08:31;6.65;90.58
57709;SHT35;42558;52.388;13.390;2024-03-23T06:11:00;6.68;90.51
57709;SHT35;42558;52.388;13.390;2024-03-23T06:13:29;6.74;90.52
57709;SHT35;42558;52.388;13.390;2024-03-23T06:15:58;6.76;90.42
57709;SHT35;42558;52.388;13.390;2024-03-23T06:18:27;6.78;90.34
57709;SHT35;42558;52.388;13.390;2024-03-23T06:20:56;6.79;90.32
57709;SHT35;42558;52.388;13.390;2024-03-23T06:23:26;6.80;90.30
57709;SHT35;42558;52.388;13.390;2024-03-23T06:25:55;6.81;90.29
57709;SHT35;42558;52.388;13.390;2024-03-23T06:28:24;6.85;90.33
57709;SHT35;42558;52.388;13.390;2024-03-23T06:30:53;6.91;90.39
57709;SHT35;42558;52.388;13.390;2024-03-23T06:33:22;6.89;90.22
57709;SHT35;42558;52.388;13.390;2024-03-23T06:35:52;6.91;90.31
57709;SHT35;42558;52.388;13.390;2024-03-23T06:38:21;6.91;90.31
57709;SHT35;42558;52.388;13.390;2024-03-23T06:40:50;6.92;90.39
57709;SHT35;42558;52.388;13.390;2024-03-23T06:43:21;6.97;90.41
57709;SHT35;42558;52.388;13.390;2024-03-23T06:45:53;6.88;89.82
57709;SHT35;42558;52.388;13.390;2024-03-23T06:48:23;6.84;89.70
57709;SHT35;42558;52.388;13.390;2024-03-23T06:50:55;6.76;89.38
57709;SHT35;42558;52.388;13.390;2024-03-23T06:53:23;6.81;89.48
57709;SHT35;42558;52.388;13.390;2024-03-23T06:55:52;6.73;89.03
57709;SHT35;42558;52.388;13.390;2024-03-23T06:58:20;6.75;89.06
57709;SHT35;42558;52.388;13.390;2024-03-23T07:00:48;6.73;88.81
57709;SHT35;42558;52.388;13.390;2024-03-23T07:03:16;6.76;88.65
57709;SHT35;42558;52.388;13.390;2024-03-23T07:05:45;6.76;88.61
57709;SHT35;42558;52.388;13.390;2024-03-23T07:08:13;6.69;88.33
57709;SHT35;42558;52.388;13.390;2024-03-23T07:10:44;6.69;88.32
57709;SHT35;42558;52.388;13.390;2024-03-23T07:13:13;6.77;88.63
57709;SHT35;42558;52.388;13.390;2024-03-23T07:15:41;6.82;88.78
57709;SHT35;42558;52.388;13.390;2024-03-23T07:18:10;6.79;88.50
57709;SHT35;42558;52.388;13.390;2024-03-23T07:20:37;6.73;88.45
57709;SHT35;42558;52.388;13.390;2024-03-23T07:23:06;6.68;88.12
57709;SHT35;42558;52.388;13.390;2024-03-23T07:25:34;6.70;88.38
57709;SHT35;42558;52.388;13.390;2024-03-23T07:28:02;6.65;88.03
57709;SHT35;42558;52.388;13.390;2024-03-23T07:30:31;6.65;88.42
57709;SHT35;42558;52.388;13.390;2024-03-23T07:32:59;6.72;88.90
57709;SHT35;42558;52.388;13.390;2024-03-23T07:35:27;6.75;88.75
57709;SHT35;42558;52.388;13.390;2024-03-23T07:37:56;6.77;88.82
57709;SHT35;42558;52.388;13.390;2024-03-23T07:40:24;6.78;88.69
57709;SHT35;42558;52.388;13.390;2024-03-23T07:42:53;6.79;88.73
57709;SHT35;42558;52.388;13.390;2024-03-23T07:45:21;6.78;88.44
57709;SHT35;42558;52.388;13.390;2024-03-23T07:47:50;6.77;88.58
57709;SHT35;42558;52.388;13.390;2024-03-23T07:50:18;6.80;88.16
57709;SHT35;42558;52.388;13.390;2024-03-23T07:52:46;6.73;87.58
57709;SHT35;42558;52.388;13.390;2024-03-23T07:55:15;6.67;87.56
57709;SHT35;42558;52.388;13.390;2024-03-23T07:57:43;6.67;87.24
57709;SHT35;42558;52.388;13.390;2024-03-23T08:00:12;6.65;87.30
57709;SHT35;42558;52.388;13.390;2024-03-23T08:02:45;6.74;87.88
57709;SHT35;42558;52.388;13.390;2024-03-23T08:05:14;6.74;87.94
57709;SHT35;42558;52.388;13.390;2024-03-23T08:07:43;6.78;88.15
57709;SHT35;42558;52.388;13.390;2024-03-23T08:10:11;6.72;87.64
57709;SHT35;42558;52.388;13.390;2024-03-23T08:12:41;6.61;87.21
57709;SHT35;42558;52.388;13.390;2024-03-23T08:15:10;6.60;87.21
57709;SHT35;42558;52.388;13.390;2024-03-23T08:17:39;6.59;87.42
57709;SHT35;42558;52.388;13.390;2024-03-23T08:20:08;6.51;87.56
57709;SHT35;42558;52.388;13.390;2024-03-23T08:22:47;6.47;87.37
57709;SHT35;42558;52.388;13.390;2024-03-23T08:25:15;6.41;87.00
57709;SHT35;42558;52.388;13.390;2024-03-23T08:27:45;6.49;87.13
57709;SHT35;42558;52.388;13.390;2024-03-23T08:30:14;6.46;87.28
57709;SHT35;42558;52.388;13.390;2024-03-23T08:32:43;6.53;87.51
57709;SHT35;42558;52.388;13.390;2024-03-23T08:35:12;6.49;87.31
57709;SHT35;42558;52.388;13.390;2024-03-23T08:37:41;6.44;87.23
57709;SHT35;42558;52.388;13.390;2024-03-23T08:40:10;6.44;87.59
57709;SHT35;42558;52.388;13.390;2024-03-23T08:42:40;6.53;87.88
57709;SHT35;42558;52.388;13.390;2024-03-23T08:45:09;6.57;88.29
57709;SHT35;42558;52.388;13.390;2024-03-23T08:47:38;6.64;88.74
57709;SHT35;42558;52.388;13.390;2024-03-23T08:50:07;6.50;88.20
57709;SHT35;42558;52.388;13.390;2024-03-23T08:52:34;6.34;87.88
57709;SHT35;42558;52.388;13.390;2024-03-23T08:55:03;6.21;88.05
57709;SHT35;42558;52.388;13.390;2024-03-23T08:57:33;6.09;87.50
57709;SHT35;42558;52.388;13.390;2024-03-23T09:00:02;6.01;87.39
57709;SHT35;42558;52.388;13.390;2024-03-23T09:02:32;5.90;87.38
57709;SHT35;42558;52.388;13.390;2024-03-23T09:05:01;5.76;86.84
57709;SHT35;42558;52.388;13.390;2024-03-23T09:07:32;5.66;86.60
57709;SHT35;42558;52.388;13.390;2024-03-23T09:10:01;5.50;86.38
57709;SHT35;42558;52.388;13.390;2024-03-23T09:12:31;5.40;86.77
57709;SHT35;42558;52.388;13.390;2024-03-23T09:14:59;5.45;87.62
57709;SHT35;42558;52.388;13.390;2024-03-23T09:17:28;5.41;87.80
57709;SHT35;42558;52.388;13.390;2024-03-23T09:19:57;5.31;87.71
57709;SHT35;42558;52.388;13.390;2024-03-23T09:22:26;5.23;87.25
57709;SHT35;42558;52.388;13.390;2024-03-23T09:24:55;5.10;86.93
57709;SHT35;42558;52.388;13.390;2024-03-23T09:27:24;5.03;86.68
57709;SHT35;42558;52.388;13.390;2024-03-23T09:29:53;5.02;86.50
57709;SHT35;42558;52.388;13.390;2024-03-23T09:32:22;4.96;86.77
57709;SHT35;42558;52.388;13.390;2024-03-23T09:34:51;4.87;86.03
57709;SHT35;42558;52.388;13.390;2024-03-23T09:37:19;4.83;86.18
57709;SHT35;42558;52.388;13.390;2024-03-23T09:39:48;4.85;86.50
57709;SHT35;42558;52.388;13.390;2024-03-23T09:42:17;4.87;87.16
57709;SHT35;42558;52.388;13.390;2024-03-23T09:44:46;4.84;87.18
57709;SHT35;42558;52.388;13.390;2024-03-23T09:47:19;4.75;86.39
57709;SHT35;42558;52.388;13.390;2024-03-23T09:49:49;4.73;86.48
57709;SHT35;42558;52.388;13.390;2024-03-23T09:52:18;4.78;87.04
57709;SHT35;42558;52.388;13.390;2024-03-23T09:54:47;4.76;87.34
57709;SHT35;42558;52.388;13.390;2024-03-23T09:57:16;4.72;87.73
57709;SHT35;42558;52.388;13.390;2024-03-23T09:59:45;4.69;87.03
57709;SHT35;42558;52.388;13.390;2024-03-23T10:02:15;4.63;86.63
57709;SHT35;42558;52.388;13.390;2024-03-23T10:04:45;4.68;87.10
57709;SHT35;42558;52.388;13.390;2024-03-23T10:07:15;4.75;87.83
57709;SHT35;42558;52.388;13.390;2024-03-23T10:09:48;4.78;87.99
57709;SHT35;42558;52.388;13.390;2024-03-23T10:12:20;4.75;87.97
57709;SHT35;42558;52.388;13.390;2024-03-23T10:14:50;4.79;88.29
57709;SHT35;42558;52.388;13.390;2024-03-23T10:17:19;4.81;88.54
57709;SHT35;42558;52.388;13.390;2024-03-23T10:19:53;4.78;88.01
57709;SHT35;42558;52.388;13.390;2024-03-23T10:22:25;4.71;87.37
57709;SHT35;42558;52.388;13.390;2024-03-23T10:24:54;4.68;87.26
57709;SHT35;42558;52.388;13.390;2024-03-23T10:27:37;4.65;87.39
57709;SHT35;42558;52.388;13.390;2024-03-23T10:30:10;4.59;86.82
57709;SHT35;42558;52.388;13.390;2024-03-23T10:32:43;4.55;86.75
57709;SHT35;42558;52.388;13.390;2024-03-23T10:35:19;4.60;87.39
57709;SHT35;42558;52.388;13.390;2024-03-23T10:37:52;4.63;87.90
57709;SHT35;42558;52.388;13.390;2024-03-23T10:40:23;4.58;87.65
57709;SHT35;42558;52.388;13.390;2024-03-23T10:42:54;4.57;87.65
57709;SHT35;42558;52.388;13.390;2024-03-23T10:45:28;4.58;87.64
57709;SHT35;42558;52.388;13.390;2024-03-23T10:47:57;4.52;87.45
57709;SHT35;42558;52.388;13.390;2024-03-23T10:50:26;4.51;87.40
57709;SHT35;42558;52.388;13.390;2024-03-23T10:52:55;4.57;87.85
57709;SHT35;42558;52.388;13.390;2024-03-23T10:55:27;4.60;87.68
57709;SHT35;42558;52.388;13.390;2024-03-23T10:57:55;4.65;87.98
57709;SHT35;42558;52.388;13.390;2024-03-23T11:00:27;4.71;88.06
57709;SHT35;42558;52.388;13.390;2024-03-23T11:02:55;4.72;88.04
57709;SHT35;42558;52.388;13.390;2024-03-23T11:07:55;4.78;87.70
57709;SHT35;42558;52.388;13.390;2024-03-23T11:10:27;4.77;87.15
57709;SHT35;42558;52.388;13.390;2024-03-23T11:15:52;4.88;85.95
57709;SHT35;42558;52.388;13.390;2024-03-23T11:18:21;4.85;85.03
57709;SHT35;42558;52.388;13.390;2024-03-23T11:20:49;5.04;84.95
57709;SHT35;42558;52.388;13.390;2024-03-23T11:23:27;5.09;84.65
57709;SHT35;42558;52.388;13.390;2024-03-23T11:25:57;5.17;85.20
57709;SHT35;42558;52.388;13.390;2024-03-23T11:28:25;5.26;84.71
57709;SHT35;42558;52.388;13.390;2024-03-23T11:30:55;5.36;85.17
57709;SHT35;42558;52.388;13.390;2024-03-23T11:33:24;5.34;85.04
57709;SHT35;42558;52.388;13.390;2024-03-23T11:35:53;5.32;84.65
57709;SHT35;42558;52.388;13.390;2024-03-23T11:38:22;5.38;84.64
57709;SHT35;42558;52.388;13.390;2024-03-23T11:40:49;5.44;84.97
57709;SHT35;42558;52.388;13.390;2024-03-23T11:43:18;5.56;84.76
57709;SHT35;42558;52.388;13.390;2024-03-23T11:45:50;5.66;85.09
57709;SHT35;42558;52.388;13.390;2024-03-23T11:48:22;5.84;86.02
57709;SHT35;42558;52.388;13.390;2024-03-23T11:50:56;6.00;85.65
57709;SHT35;42558;52.388;13.390;2024-03-23T11:53:26;6.05;84.50
57709;SHT35;42558;52.388;13.390;2024-03-23T11:55:56;5.95;83.98
57709;SHT35;42558;52.388;13.390;2024-03-23T11:58:25;6.00;84.40
57709;SHT35;42558;52.388;13.390;2024-03-23T12:00:56;5.75;84.25
57709;SHT35;42558;52.388;13.390;2024-03-23T12:03:31;5.77;86.10
57709;SHT35;42558;52.388;13.390;2024-03-23T12:06:00;5.94;85.49
57709;SHT35;42558;52.388;13.390;2024-03-23T12:08:34;5.89;84.13
57709;SHT35;42558;52.388;13.390;2024-03-23T12:11:04;5.98;83.67
57709;SHT35;42558;52.388;13.390;2024-03-23T12:13:40;6.07;83.80
57709;SHT35;42558;52.388;13.390;2024-03-23T12:18:49;6.06;83.62
57709;SHT35;42558;52.388;13.390;2024-03-23T12:21:22;6.03;83.51
57709;SHT35;42558;52.388;13.390;2024-03-23T12:23:50;6.08;83.87
57709;SHT35;42558;52.388;13.390;2024-03-23T12:26:20;6.11;83.51
57709;SHT35;42558;52.388;13.390;2024-03-23T12:28:51;6.25;84.53
57709;SHT35;42558;52.388;13.390;2024-03-23T12:31:20;6.30;84.71
57709;SHT35;42558;52.388;13.390;2024-03-23T12:33:49;6.26;84.49
57709;SHT35;42558;52.388;13.390;2024-03-23T12:36:18;6.29;83.85
57709;SHT35;42558;52.388;13.390;2024-03-23T12:38:47;6.30;84.06
57709;SHT35;42558;52.388;13.390;2024-03-23T12:41:16;6.24;84.12
57709;SHT35;42558;52.388;13.390;2024-03-23T12:43:45;6.37;83.44
57709;SHT35;42558;52.388;13.390;2024-03-23T12:46:14;6.41;83.89
57709;SHT35;42558;52.388;13.390;2024-03-23T12:48:44;6.46;84.65
57709;SHT35;42558;52.388;13.390;2024-03-23T12:51:13;6.43;84.74
57709;SHT35;42558;52.388;13.390;2024-03-23T12:53:42;6.48;84.09
57709;SHT35;42558;52.388;13.390;2024-03-23T12:56:12;6.76;84.67
57709;SHT35;42558;52.388;13.390;2024-03-23T12:58:41;7.02;84.77
57709;SHT35;42558;52.388;13.390;2024-03-23T13:01:10;6.82;83.85
57709;SHT35;42558;52.388;13.390;2024-03-23T13:03:38;6.86;83.84
57709;SHT35;42558;52.388;13.390;2024-03-23T13:06:09;6.91;84.00
57709;SHT35;42558;52.388;13.390;2024-03-23T13:08:38;7.00;83.45
57709;SHT35;42558;52.388;13.390;2024-03-23T13:11:08;7.20;82.96
57709;SHT35;42558;52.388;13.390;2024-03-23T13:13:38;7.33;81.53
57709;SHT35;42558;52.388;13.390;2024-03-23T13:16:08;7.48;81.37
57709;SHT35;42558;52.388;13.390;2024-03-23T13:18:37;7.57;78.54
57709;SHT35;42558;52.388;13.390;2024-03-23T13:21:06;7.88;77.74
57709;SHT35;42558;52.388;13.390;2024-03-23T13:23:35;8.02;77.41
57709;SHT35;42558;52.388;13.390;2024-03-23T13:26:06;8.26;77.77
57709;SHT35;42558;52.388;13.390;2024-03-23T13:28:33;8.37;76.62
57709;SHT35;42558;52.388;13.390;2024-03-23T13:31:04;8.52;76.23
57709;SHT35;42558;52.388;13.390;2024-03-23T13:33:33;8.52;75.43
57709;SHT35;42558;52.388;13.390;2024-03-23T13:36:02;8.40;74.91
57709;SHT35;42558;52.388;13.390;2024-03-23T13:38:31;8.76;75.23
57709;SHT35;42558;52.388;13.390;2024-03-23T13:41:00;8.77;76.04
57709;SHT35;42558;52.388;13.390;2024-03-23T13:43:30;8.78;75.43
57709;SHT35;42558;52.388;13.390;2024-03-23T13:45:58;8.62;76.54
57709;SHT35;42558;52.388;13.390;2024-03-23T13:48:27;8.66;76.81
57709;SHT35;42558;52.388;13.390;2024-03-23T13:51:04;8.87;77.23
57709;SHT35;42558;52.388;13.390;2024-03-23T13:53:32;9.36;76.78
57709;SHT35;42558;52.388;13.390;2024-03-23T13:56:01;9.20;75.87
57709;SHT35;42558;52.388;13.390;2024-03-23T13:58:29;9.12;75.40
57709;SHT35;42558;52.388;13.390;2024-03-23T14:00:58;9.42;76.11
57709;SHT35;42558;52.388;13.390;2024-03-23T14:03:26;9.24;75.06
57709;SHT35;42558;52.388;13.390;2024-03-23T14:05:58;9.38;74.64
57709;SHT35;42558;52.388;13.390;2024-03-23T14:08:27;9.47;74.54
57709;SHT35;42558;52.388;13.390;2024-03-23T14:10:56;9.21;73.55
57709;SHT35;42558;52.388;13.390;2024-03-23T14:13:25;9.18;73.83
57709;SHT35;42558;52.388;13.390;2024-03-23T14:15:56;9.28;73.82
57709;SHT35;42558;52.388;13.390;2024-03-23T14:18:26;9.72;73.40
57709;SHT35;42558;52.388;13.390;2024-03-23T14:20:57;9.44;73.15
57709;SHT35;42558;52.388;13.390;2024-03-23T14:23:28;9.49;73.55
57709;SHT35;42558;52.388;13.390;2024-03-23T14:26:02;9.79;72.57
57709;SHT35;42558;52.388;13.390;2024-03-23T14:28:31;10.02;71.36
57709;SHT35;42558;52.388;13.390;2024-03-23T14:31:00;10.30;71.16
57709;SHT35;42558;52.388;13.390;2024-03-23T14:33:31;10.10;69.06
57709;SHT35;42558;52.388;13.390;2024-03-23T14:36:02;9.99;70.52
57709;SHT35;42558;52.388;13.390;2024-03-23T14:38:31;9.81;70.32
57709;SHT35;42558;52.388;13.390;2024-03-23T14:41:00;9.78;69.55
57709;SHT35;42558;52.388;13.390;2024-03-23T14:43:29;9.66;70.02
57709;SHT35;42558;52.388;13.390;2024-03-23T14:48:44;9.31;70.89
57709;SHT35;42558;52.388;13.390;2024-03-23T14:51:13;9.10;71.12
57709;SHT35;42558;52.388;13.390;2024-03-23T14:53:45;9.05;70.78
57709;SHT35;42558;52.388;13.390;2024-03-23T14:56:12;8.98;72.77
57709;SHT35;42558;52.388;13.390;2024-03-23T14:58:43;8.00;74.95
57709;SHT35;42558;52.388;13.390;2024-03-23T15:01:14;7.58;76.61
57709;SHT35;42558;52.388;13.390;2024-03-23T15:03:43;7.45;77.69
57709;SHT35;42558;52.388;13.390;2024-03-23T15:06:12;7.40;78.20
57709;SHT35;42558;52.388;13.390;2024-03-23T15:08:42;7.43;78.46
57709;SHT35;42558;52.388;13.390;2024-03-23T15:11:11;7.15;77.72
57709;SHT35;42558;52.388;13.390;2024-03-23T15:13:40;7.32;78.44
57709;SHT35;42558;52.388;13.390;2024-03-23T15:16:09;7.38;77.77
57709;SHT35;42558;52.388;13.390;2024-03-23T15:18:38;7.71;76.16
57709;SHT35;42558;52.388;13.390;2024-03-23T15:21:07;8.05;75.78
57709;SHT35;42558;52.388;13.390;2024-03-23T15:23:39;8.18;74.74
57709;SHT35;42558;52.388;13.390;2024-03-23T15:26:08;8.46;74.29
57709;SHT35;42558;52.388;13.390;2024-03-23T15:28:34;8.75;74.08
57709;SHT35;42558;52.388;13.390;2024-03-23T15:31:30;9.00;72.42
57709;SHT35;42558;52.388;13.390;2024-03-23T15:34:00;8.81;71.17
57709;SHT35;42558;52.388;13.390;2024-03-23T15:36:30;8.75;70.51
57709;SHT35;42558;52.388;13.390;2024-03-23T15:38:59;8.67;70.16
57709;SHT35;42558;52.388;13.390;2024-03-23T15:41:28;8.55;70.53
57709;SHT35;42558;52.388;13.390;2024-03-23T15:43:57;8.45;70.81
57709;SHT35;42558;52.388;13.390;2024-03-23T15:46:26;8.18;71.75
57709;SHT35;42558;52.388;13.390;2024-03-23T15:48:55;8.05;72.72
57709;SHT35;42558;52.388;13.390;2024-03-23T15:51:24;7.91;73.73
57709;SHT35;42558;52.388;13.390;2024-03-23T15:54:00;7.98;73.98
57709;SHT35;42558;52.388;13.390;2024-03-23T15:56:29;7.91;74.38
57709;SHT35;42558;52.388;13.390;2024-03-23T15:58:58;7.89;75.53
57709;SHT35;42558;52.388;13.390;2024-03-23T16:01:34;7.92;75.42
57709;SHT35;42558;52.388;13.390;2024-03-23T16:04:03;7.89;75.72
57709;SHT35;42558;52.388;13.390;2024-03-23T16:06:31;7.97;75.43
57709;SHT35;42558;52.388;13.390;2024-03-23T16:09:00;7.68;75.18
57709;SHT35;42558;52.388;13.390;2024-03-23T16:11:29;7.62;76.10
57709;SHT35;42558;52.388;13.390;2024-03-23T16:13:58;7.53;76.37
57709;SHT35;42558;52.388;13.390;2024-03-23T16:16:27;7.51;75.97
57709;SHT35;42558;52.388;13.390;2024-03-23T16:18:56;7.45;75.50
57709;SHT35;42558;52.388;13.390;2024-03-23T16:21:25;7.49;76.35
57709;SHT35;42558;52.388;13.390;2024-03-23T16:23:54;7.43;75.81
57709;SHT35;42558;52.388;13.390;2024-03-23T16:26:23;7.38;76.41
57709;SHT35;42558;52.388;13.390;2024-03-23T16:28:52;7.23;76.67
57709;SHT35;42558;52.388;13.390;2024-03-23T16:31:21;7.15;77.13
57709;SHT35;42558;52.388;13.390;2024-03-23T16:33:50;7.09;76.47
57709;SHT35;42558;52.388;13.390;2024-03-23T16:36:21;7.06;77.54
57709;SHT35;42558;52.388;13.390;2024-03-23T16:38:50;6.95;77.36
57709;SHT35;42558;52.388;13.390;2024-03-23T16:41:19;6.93;76.68
57709;SHT35;42558;52.388;13.390;2024-03-23T16:43:46;6.97;76.93
57709;SHT35;42558;52.388;13.390;2024-03-23T16:46:14;6.92;77.14